createdAt,value
2022-08-17T00:00:44.029Z,100742.66
2022-08-17T00:03:26.185Z,100730.28
2022-08-17T00:06:08.581Z,100722.69
2022-08-17T00:08:46.732Z,100719.25
2022-08-17T00:11:25.546Z,100715.44
2022-08-17T00:14:11.750Z,100711.50
2022-08-17T00:16:56.927Z,100713.06
2022-08-17T00:19:26.656Z,100710.03
2022-08-17T00:22:34.672Z,100695.50
2022-08-17T00:24:47.517Z,100703.47
2022-08-17T00:27:14.646Z,100694.69
2022-08-17T00:29:42.247Z,100700.34
2022-08-17T00:33:13.603Z,100703.75
2022-08-17T00:34:56.186Z,100698.84
2022-08-17T00:37:23.175Z,100699.63
2022-08-17T00:39:50.209Z,100696.81
2022-08-17T00:42:19.044Z,100690.50
2022-08-17T00:44:46.813Z,100691.50
2022-08-17T00:47:13.943Z,100691.13
2022-08-17T00:49:41.218Z,100695.63
2022-08-17T00:52:16.590Z,100695.53
2022-08-17T00:54:47.349Z,100698.19
2022-08-17T00:57:30.039Z,100700.41
2022-08-17T01:00:05.571Z,100703.91
2022-08-17T01:02:51.523Z,100704.97
2022-08-17T01:05:25.353Z,100702.22
2022-08-17T01:07:53.825Z,100692.16
2022-08-17T01:10:58.300Z,100689.84
2022-08-17T01:13:18.031Z,100692.38
2022-08-17T01:16:05.941Z,100678.28
2022-08-17T01:18:34.305Z,100681.53
2022-08-17T01:21:14.143Z,100678.06
2022-08-17T01:23:42.398Z,100675.09
2022-08-17T01:26:09.674Z,100674.66
2022-08-17T01:28:54.242Z,100673.09
2022-08-17T01:31:25.564Z,100673.56
2022-08-17T01:33:52.882Z,100666.84
2022-08-17T01:36:20.256Z,100665.00
2022-08-17T01:38:47.418Z,100662.31
2022-08-17T01:41:16.853Z,100658.63
2022-08-17T01:43:59.039Z,100667.16
2022-08-17T01:46:36.205Z,100659.19
2022-08-17T01:49:10.069Z,100652.16
2022-08-17T01:51:39.052Z,100648.97
2022-08-17T01:54:12.804Z,100642.03
2022-08-17T01:56:47.071Z,100650.25
2022-08-17T01:59:16.157Z,100650.00
2022-08-17T02:01:44.145Z,100652.47
2022-08-17T02:04:12.295Z,100656.03
2022-08-17T02:06:52.859Z,100647.53
2022-08-17T02:09:25.693Z,100642.97
2022-08-17T02:11:58.701Z,100649.34
2022-08-17T02:14:25.904Z,100646.59
2022-08-17T02:16:53.838Z,100645.31
2022-08-17T02:19:22.011Z,100641.22
2022-08-17T02:21:53.897Z,100640.50
2022-08-17T02:25:00.319Z,100635.31
2022-08-17T02:27:19.343Z,100645.16
2022-08-17T02:29:46.396Z,100635.31
2022-08-17T02:32:27.340Z,100632.63
2022-08-17T02:34:56.030Z,100638.84
2022-08-17T02:37:23.052Z,100629.16
2022-08-17T02:39:50.202Z,100625.69
2022-08-17T02:42:17.300Z,100625.69
2022-08-17T02:44:45.118Z,100624.22
2022-08-17T02:47:12.398Z,100627.38
2022-08-17T02:49:39.408Z,100621.44
2022-08-17T02:52:07.983Z,100620.50
2022-08-17T02:54:41.738Z,100619.91
2022-08-17T02:57:10.489Z,100625.16
2022-08-17T02:59:39.716Z,100622.94
2022-08-17T03:02:10.666Z,100624.50
2022-08-17T03:04:38.984Z,100611.19
2022-08-17T03:07:06.700Z,100612.00
2022-08-17T03:09:33.722Z,100618.09
2022-08-17T03:12:10.080Z,100616.81
2022-08-17T03:14:41.732Z,100618.84
2022-08-17T03:17:11.199Z,100614.22
2022-08-17T03:19:44.483Z,100615.03
2022-08-17T03:22:36.471Z,100614.75
2022-08-17T03:24:59.078Z,100608.66
2022-08-17T03:27:26.463Z,100607.44
2022-08-17T03:29:54.081Z,100613.28
2022-08-17T03:32:21.136Z,100610.47
2022-08-17T03:34:48.568Z,100611.22
2022-08-17T03:37:15.766Z,100614.59
2022-08-17T03:39:43.036Z,100615.69
2022-08-17T03:42:32.423Z,100613.22
2022-08-17T03:45:02.126Z,100621.03
2022-08-17T03:48:04.838Z,100622.31
2022-08-17T03:50:50.367Z,100624.66
2022-08-17T03:53:36.374Z,100632.38
2022-08-17T03:56:24.043Z,100633.47
2022-08-17T03:58:51.102Z,100646.84
2022-08-17T04:01:18.240Z,100645.56
2022-08-17T04:03:45.390Z,100641.09
2022-08-17T04:06:12.399Z,100641.97
2022-08-17T04:08:39.432Z,100648.59
2022-08-17T04:11:06.517Z,100645.00
2022-08-17T04:13:33.509Z,100650.25
2022-08-17T04:16:00.576Z,100650.09
2022-08-17T04:18:27.717Z,100646.44
2022-08-17T04:20:54.828Z,100650.00
2022-08-17T04:23:23.249Z,100661.19
2022-08-17T04:25:51.377Z,100704.59
2022-08-17T04:28:20.613Z,100748.78
2022-08-17T04:30:48.398Z,100725.94
2022-08-17T04:33:25.935Z,100752.06
2022-08-17T04:36:01.396Z,100717.13
2022-08-17T04:38:33.634Z,100749.84
2022-08-17T04:41:20.383Z,100725.78
2022-08-17T04:43:50.039Z,100745.13
2022-08-17T04:46:20.160Z,100732.06
2022-08-17T04:48:51.194Z,100726.63
2022-08-17T04:51:39.536Z,100712.38
2022-08-17T04:54:20.826Z,100722.72
2022-08-17T04:56:48.207Z,100707.03
2022-08-17T04:59:21.918Z,100708.53
2022-08-17T05:01:51.734Z,100711.09
2022-08-17T05:04:34.372Z,100710.88
2022-08-17T05:07:04.249Z,100714.25
2022-08-17T05:09:31.660Z,100711.75
2022-08-17T05:12:02.454Z,100710.38
2022-08-17T05:14:33.661Z,100714.78
2022-08-17T05:17:01.987Z,100715.44
2022-08-17T05:19:34.475Z,100729.13
2022-08-17T05:22:05.946Z,100714.50
2022-08-17T05:24:39.137Z,100714.72
2022-08-17T05:27:10.863Z,100717.38
2022-08-17T05:29:45.962Z,100724.00
2022-08-17T05:32:38.391Z,100717.78
2022-08-17T05:35:02.403Z,100718.31
2022-08-17T05:37:29.394Z,100725.06
2022-08-17T05:39:56.580Z,100727.59
2022-08-17T05:42:24.148Z,100736.28
2022-08-17T05:44:51.231Z,100737.75
2022-08-17T05:47:18.660Z,100741.00
2022-08-17T05:49:48.859Z,100735.19
2022-08-17T05:52:58.086Z,100739.88
2022-08-17T05:55:48.749Z,100725.63
2022-08-17T05:58:54.342Z,100723.66
2022-08-17T06:01:47.616Z,100726.25
2022-08-17T06:04:32.483Z,100716.72
2022-08-17T06:07:31.807Z,100711.56
2022-08-17T06:10:47.122Z,100722.34
2022-08-17T06:13:48.118Z,100725.81
2022-08-17T06:16:31.119Z,100726.91
2022-08-17T06:19:13.672Z,100733.41
2022-08-17T06:21:47.753Z,100738.81
2022-08-17T06:24:48.414Z,100737.03
2022-08-17T06:27:46.097Z,100729.13
2022-08-17T06:30:21.720Z,100742.38
2022-08-17T06:32:52.096Z,100738.84
2022-08-17T06:35:42.316Z,100742.31
2022-08-17T06:38:37.579Z,100737.41
2022-08-17T06:41:43.549Z,100746.31
2022-08-17T06:44:43.509Z,100745.28
2022-08-17T06:47:28.671Z,100748.69
2022-08-17T06:50:37.051Z,100753.97
2022-08-17T06:53:28.347Z,100764.69
2022-08-17T06:56:10.249Z,100774.09
2022-08-17T06:58:40.778Z,100777.91
2022-08-17T07:01:18.421Z,100784.53
2022-08-17T07:04:13.551Z,100790.88
2022-08-17T07:06:47.806Z,100784.78
2022-08-17T07:09:35.949Z,100784.78
2022-08-17T07:12:22.622Z,100778.59
2022-08-17T07:15:27.223Z,100779.88
2022-08-17T07:17:54.304Z,100769.38
2022-08-17T07:20:25.191Z,100771.47
2022-08-17T07:23:00.076Z,100771.31
2022-08-17T07:25:30.717Z,100785.31
2022-08-17T07:28:06.930Z,100787.91
2022-08-17T07:30:49.280Z,100796.34
2022-08-17T07:33:25.764Z,100796.94
2022-08-17T07:35:53.658Z,100799.94
2022-08-17T07:38:33.852Z,100792.75
2022-08-17T07:41:06.939Z,100790.53
2022-08-17T07:43:39.990Z,100801.53
2022-08-17T07:46:37.645Z,100795.03
2022-08-17T07:49:07.481Z,100796.34
2022-08-17T07:51:43.929Z,100788.34
2022-08-17T07:54:22.296Z,100796.81
2022-08-17T07:56:55.511Z,100800.88
2022-08-17T07:59:33.210Z,100796.66
2022-08-17T08:02:03.874Z,100797.03
2022-08-17T08:05:29.995Z,100794.25
2022-08-17T08:08:24.422Z,100792.38
2022-08-17T08:11:07.591Z,100788.31
2022-08-17T08:13:42.382Z,100783.63
2022-08-17T08:16:25.257Z,100784.50
2022-08-17T08:19:20.932Z,100793.47
2022-08-17T08:22:00.215Z,100795.53
2022-08-17T08:24:52.253Z,100808.72
2022-08-17T08:27:43.479Z,100804.16
2022-08-17T08:30:19.201Z,100819.63
2022-08-17T08:33:13.243Z,100829.72
2022-08-17T08:37:15.959Z,100837.72
2022-08-17T08:40:08.418Z,100825.91
2022-08-17T08:42:57.530Z,100825.13
2022-08-17T08:45:41.622Z,100822.72
2022-08-17T08:48:53.873Z,100813.13
2022-08-17T08:51:58.709Z,100815.41
2022-08-17T08:55:08.104Z,100812.97
2022-08-17T08:57:45.965Z,100809.44
2022-08-17T09:00:21.809Z,100816.50
2022-08-17T09:03:17.394Z,100819.75
2022-08-17T09:06:37.915Z,100830.59
2022-08-17T09:09:33.873Z,100835.19
2022-08-17T09:12:29.950Z,100839.84
2022-08-17T09:15:21.882Z,100850.59
2022-08-17T09:19:02.354Z,100860.38
2022-08-17T09:21:49.760Z,100880.34
2022-08-17T09:24:31.279Z,100884.59
2022-08-17T09:27:11.304Z,100903.16
2022-08-17T09:29:50.274Z,100911.13
2022-08-17T09:32:42.636Z,100922.03
2022-08-17T09:35:25.094Z,100922.25
2022-08-17T09:38:31.736Z,100922.50
2022-08-17T09:41:18.355Z,100911.56
2022-08-17T09:44:04.763Z,100904.88
2022-08-17T09:46:47.867Z,100910.88
2022-08-17T09:49:34.163Z,100910.44
2022-08-17T09:52:18.562Z,100909.31
2022-08-17T09:54:46.937Z,100902.31
2022-08-17T09:57:39.712Z,100897.84
2022-08-17T10:00:18.791Z,100899.34
2022-08-17T10:03:19.864Z,100912.03
2022-08-17T10:06:08.395Z,100916.47
2022-08-17T10:09:18.886Z,100916.66
2022-08-17T10:12:20.550Z,100915.06
2022-08-17T10:15:07.925Z,100912.72
2022-08-17T10:18:01.256Z,100907.94
2022-08-17T10:20:49.623Z,100910.94
2022-08-17T10:23:46.417Z,100903.41
2022-08-17T10:26:24.994Z,100913.47
2022-08-17T10:29:04.329Z,100924.06
2022-08-17T10:31:48.667Z,100915.97
2022-08-17T10:34:56.402Z,100907.06
2022-08-17T10:37:57.430Z,100914.25
2022-08-17T10:41:21.085Z,100904.81
2022-08-17T10:44:36.967Z,100889.09
2022-08-17T10:47:15.468Z,100894.53
2022-08-17T10:49:54.187Z,100895.34
2022-08-17T10:52:26.142Z,100894.66
2022-08-17T10:55:18.190Z,100893.19
2022-08-17T10:57:50.253Z,100898.41
2022-08-17T11:00:29.666Z,100907.22
2022-08-17T11:02:58.734Z,100901.88
2022-08-17T11:05:55.862Z,100909.84
2022-08-17T11:08:53.837Z,100919.53
2022-08-17T11:11:51.428Z,100923.91
2022-08-17T11:14:44.226Z,100926.03
2022-08-17T11:17:57.649Z,100930.38
2022-08-17T11:20:38.261Z,100932.59
2022-08-17T11:23:38.057Z,100946.44
2022-08-17T11:26:32.209Z,100956.97
2022-08-17T11:29:37.515Z,100972.88
2022-08-17T11:32:54.651Z,100970.69
2022-08-17T11:35:22.200Z,100978.47
2022-08-17T11:38:35.758Z,100989.47
2022-08-17T11:41:30.468Z,100988.88
2022-08-17T11:44:37.839Z,100990.56
2022-08-17T11:47:38.843Z,100989.94
2022-08-17T11:51:10.797Z,100989.41
2022-08-17T11:53:38.667Z,100988.19
2022-08-17T11:56:09.610Z,100993.63
2022-08-17T11:58:44.164Z,100995.34
2022-08-17T12:01:23.090Z,101010.22
2022-08-17T12:04:22.796Z,101013.91
2022-08-17T12:06:56.949Z,101010.41
2022-08-17T12:09:32.388Z,101006.06
2022-08-17T12:12:14.527Z,101005.38
2022-08-17T12:15:10.122Z,100998.06
2022-08-17T12:17:41.162Z,100996.69
2022-08-17T12:20:32.341Z,101004.41
2022-08-17T12:23:04.965Z,100984.94
2022-08-17T12:25:44.482Z,100993.44
2022-08-17T12:28:35.017Z,100997.66
2022-08-17T12:31:11.843Z,100988.63
2022-08-17T12:33:44.489Z,100992.72
2022-08-17T12:36:18.330Z,100990.75
2022-08-17T12:39:14.878Z,100993.25
2022-08-17T12:41:56.311Z,100991.00
2022-08-17T12:44:49.889Z,100983.75
2022-08-17T12:47:22.836Z,100993.75
2022-08-17T12:49:54.598Z,100987.59
2022-08-17T12:52:29.094Z,100994.28
2022-08-17T12:55:01.832Z,100986.16
2022-08-17T12:57:46.982Z,100989.50
2022-08-17T13:00:22.075Z,100981.03
2022-08-17T13:03:17.523Z,100983.88
2022-08-17T13:06:02.487Z,100982.72
2022-08-17T13:08:37.622Z,100976.97
2022-08-17T13:11:09.844Z,100980.75
2022-08-17T13:13:44.141Z,100964.94
2022-08-17T13:16:17.086Z,100979.25
2022-08-17T13:18:49.965Z,100976.50
2022-08-17T13:21:27.066Z,100965.91
2022-08-17T13:24:14.623Z,100967.63
2022-08-17T13:27:08.296Z,100964.34
2022-08-17T13:29:44.714Z,100963.75
2022-08-17T13:32:13.581Z,100962.38
2022-08-17T13:35:12.013Z,100959.97
2022-08-17T13:37:36.630Z,100965.03
2022-08-17T13:40:09.763Z,100952.09
2022-08-17T13:42:51.486Z,100952.53
2022-08-17T13:45:36.470Z,100946.66
2022-08-17T13:48:11.838Z,100943.09
2022-08-17T13:50:59.614Z,100946.94
2022-08-17T13:53:36.396Z,100941.06
2022-08-17T13:56:31.674Z,100940.06
2022-08-17T13:59:14.442Z,100938.03
2022-08-17T14:01:53.628Z,100932.69
2022-08-17T14:04:32.795Z,100937.97
2022-08-17T14:07:04.145Z,100937.56
2022-08-17T14:09:51.818Z,100935.38
2022-08-17T14:12:27.271Z,100935.91
2022-08-17T14:14:56.465Z,100936.16
2022-08-17T14:17:25.984Z,100939.44
2022-08-17T14:19:53.712Z,100948.69
2022-08-17T14:22:32.987Z,100947.84
2022-08-17T14:25:04.168Z,100957.81
2022-08-17T14:27:41.567Z,100951.97
2022-08-17T14:30:25.307Z,100948.59
2022-08-17T14:32:53.789Z,100940.34
2022-08-17T14:35:23.997Z,100941.84
2022-08-17T14:37:52.798Z,100941.09
2022-08-17T14:40:24.663Z,100945.06
2022-08-17T14:42:54.334Z,100959.97
2022-08-17T14:45:32.892Z,100962.75
2022-08-17T14:48:04.202Z,100962.41
2022-08-17T14:50:32.105Z,100953.44
2022-08-17T14:53:04.445Z,100957.28
2022-08-17T14:55:32.490Z,100956.47
2022-08-17T14:57:59.605Z,100966.50
2022-08-17T15:00:26.966Z,100968.84
2022-08-17T15:02:58.485Z,100961.16
2022-08-17T15:05:33.722Z,100961.94
2022-08-17T15:08:03.247Z,100966.66
2022-08-17T15:10:31.141Z,100966.72
2022-08-17T15:13:00.411Z,100969.47
2022-08-17T15:15:28.387Z,100967.38
2022-08-17T15:17:55.606Z,100975.63
2022-08-17T15:20:28.132Z,100970.88
2022-08-17T15:22:58.766Z,100973.09
2022-08-17T15:25:32.208Z,100970.34
2022-08-17T15:28:00.854Z,100971.69
2022-08-17T15:30:28.800Z,100969.72
2022-08-17T15:32:58.502Z,100975.91
2022-08-17T15:35:30.472Z,100973.91
2022-08-17T15:38:08.113Z,100974.75
2022-08-17T15:40:49.528Z,100969.94
2022-08-17T15:43:27.326Z,100966.66
2022-08-17T15:46:12.066Z,100961.03
2022-08-17T15:48:42.233Z,100955.78
2022-08-17T15:51:26.242Z,100960.66
2022-08-17T15:54:00.248Z,100952.44
2022-08-17T15:56:32.294Z,100950.78
2022-08-17T15:58:59.499Z,100951.78
2022-08-17T16:02:20.011Z,100948.88
2022-08-17T16:04:26.810Z,100948.78
2022-08-17T16:06:59.243Z,100939.59
2022-08-17T16:09:26.451Z,100932.78
2022-08-17T16:11:55.468Z,100935.84
2022-08-17T16:14:24.726Z,100930.66
2022-08-17T16:16:59.679Z,100928.75
2022-08-17T16:19:26.694Z,100929.78
2022-08-17T16:21:53.666Z,100924.06
2022-08-17T16:24:20.720Z,100926.19
2022-08-17T16:26:47.795Z,100919.47
2022-08-17T16:29:14.860Z,100924.94
2022-08-17T16:31:43.257Z,100921.56
2022-08-17T16:34:17.177Z,100915.53
2022-08-17T16:36:54.996Z,100915.78
2022-08-17T16:39:26.819Z,100908.28
2022-08-17T16:41:55.815Z,100921.78
2022-08-17T16:44:23.031Z,100926.34
2022-08-17T16:46:50.737Z,100920.00
2022-08-17T16:49:35.706Z,100923.03
2022-08-17T16:52:09.889Z,100919.88
2022-08-17T16:54:44.459Z,100920.97
2022-08-17T16:57:13.936Z,100928.50
2022-08-17T16:59:43.949Z,100924.31
2022-08-17T17:02:23.561Z,100928.69
2022-08-17T17:05:03.143Z,100942.97
2022-08-17T17:08:00.879Z,100944.41
2022-08-17T17:10:43.316Z,100949.63
2022-08-17T17:13:21.484Z,100949.88
2022-08-17T17:16:23.979Z,100955.09
2022-08-17T17:19:09.291Z,100939.59
2022-08-17T17:21:51.928Z,100950.25
2022-08-17T17:24:36.883Z,100944.44
2022-08-17T17:27:29.485Z,100950.03
2022-08-17T17:30:21.609Z,100941.84
2022-08-17T17:32:55.501Z,100949.56
2022-08-17T17:35:25.349Z,100950.38
2022-08-17T17:37:57.290Z,100952.97
2022-08-17T17:40:40.869Z,100962.50
2022-08-17T17:43:37.134Z,100966.09
2022-08-17T17:46:27.815Z,100965.81
2022-08-17T17:48:59.595Z,100975.03
2022-08-17T17:52:11.032Z,100968.59
2022-08-17T17:55:04.339Z,100964.91
2022-08-17T17:58:04.203Z,100971.81
2022-08-17T18:01:11.522Z,100970.44
2022-08-17T18:04:20.592Z,100967.13
2022-08-17T18:07:10.011Z,100970.81
2022-08-17T18:10:19.690Z,100971.63
2022-08-17T18:13:27.946Z,100972.41
2022-08-17T18:16:00.647Z,100980.75
2022-08-17T18:18:37.871Z,100982.25
2022-08-17T18:21:39.767Z,100996.69
2022-08-17T18:24:10.526Z,100995.53
2022-08-17T18:26:37.594Z,101002.69
2022-08-17T18:29:27.769Z,101001.13
2022-08-17T18:32:19.174Z,101007.09
2022-08-17T18:34:50.999Z,101004.56
2022-08-17T18:37:40.864Z,101006.81
2022-08-17T18:40:28.401Z,101026.09
2022-08-17T18:43:03.043Z,101023.44
2022-08-17T18:45:54.183Z,101029.97
2022-08-17T18:48:53.488Z,101041.31
2022-08-17T18:51:41.027Z,101042.31
2022-08-17T18:54:25.711Z,101043.25
2022-08-17T18:56:59.692Z,101045.91
2022-08-17T18:59:43.650Z,101051.34
2022-08-17T19:02:28.405Z,101048.34
2022-08-17T19:05:25.434Z,101052.38
2022-08-17T19:07:53.529Z,101046.84
2022-08-17T19:10:28.211Z,101045.72
2022-08-17T19:13:38.493Z,101051.25
2022-08-17T19:16:22.900Z,101059.09
2022-08-17T19:19:05.181Z,101050.78
2022-08-17T19:21:49.063Z,101049.53
2022-08-17T19:24:21.713Z,101052.38
2022-08-17T19:27:17.812Z,101046.50
2022-08-17T19:30:05.379Z,101038.44
2022-08-17T19:32:35.819Z,101034.34
2022-08-17T19:35:06.783Z,101034.88
2022-08-17T19:37:53.572Z,101034.28
2022-08-17T19:40:53.579Z,101048.53
2022-08-17T19:44:16.248Z,101052.00
2022-08-17T19:47:01.937Z,101057.34
2022-08-17T19:49:56.413Z,101071.16
2022-08-17T19:53:14.431Z,101088.94
2022-08-17T19:56:15.509Z,101081.94
2022-08-17T19:58:51.537Z,101086.28
2022-08-17T20:01:50.972Z,101085.31
2022-08-17T20:04:31.992Z,101076.59
2022-08-17T20:07:16.738Z,101087.53
2022-08-17T20:10:01.837Z,101081.47
2022-08-17T20:12:36.876Z,101093.78
2022-08-17T20:15:11.492Z,101094.00
2022-08-17T20:17:43.275Z,101103.09
2022-08-17T20:20:33.296Z,101095.13
2022-08-17T20:23:36.929Z,101097.56
2022-08-17T20:26:22.705Z,101107.88
2022-08-17T20:29:16.799Z,101097.19
2022-08-17T20:31:55.914Z,101101.81
2022-08-17T20:34:46.339Z,101096.72
2022-08-17T20:37:13.214Z,101098.53
2022-08-17T20:40:09.507Z,101088.75
2022-08-17T20:42:37.081Z,101073.41
2022-08-17T20:45:26.116Z,101084.00
2022-08-17T20:48:36.101Z,101087.72
2022-08-17T20:51:09.576Z,101091.72
2022-08-17T20:53:55.086Z,101091.88
2022-08-17T20:56:44.207Z,101104.09
2022-08-17T20:59:27.572Z,101093.88
2022-08-17T21:02:18.202Z,101096.34
2022-08-17T21:04:53.050Z,101095.88
2022-08-17T21:07:42.747Z,101090.34
2022-08-17T21:10:21.100Z,101102.91
2022-08-17T21:13:00.198Z,101118.16
2022-08-17T21:16:09.419Z,101115.38
2022-08-17T21:18:50.007Z,101110.88
2022-08-17T21:21:43.584Z,101108.97
2022-08-17T21:25:03.284Z,101115.94
2022-08-17T21:27:51.534Z,101105.25
2022-08-17T21:30:34.272Z,101106.94
2022-08-17T21:33:27.862Z,101113.75
2022-08-17T21:36:12.766Z,101111.81
2022-08-17T21:38:48.931Z,101110.72
2022-08-17T21:44:42.397Z,101107.78
2022-08-17T21:47:26.350Z,101109.69
2022-08-17T21:50:13.415Z,101116.91
2022-08-17T21:52:40.943Z,101109.47
2022-08-17T21:55:26.129Z,101100.22
2022-08-17T22:00:36.823Z,101104.72
2022-08-17T22:03:07.754Z,101111.91
2022-08-17T22:05:39.431Z,101112.91
2022-08-17T22:08:20.879Z,101113.81
2022-08-17T22:10:51.453Z,101113.50
2022-08-17T22:13:18.521Z,101113.44
2022-08-17T22:16:28.164Z,101118.72
2022-08-17T22:18:59.002Z,101114.06
2022-08-17T22:21:26.316Z,101111.25
2022-08-17T22:24:06.075Z,101107.94
2022-08-17T22:27:22.049Z,101122.88
2022-08-17T22:30:01.489Z,101121.94
2022-08-17T22:32:45.107Z,101121.81
2022-08-17T22:35:46.593Z,101114.88
2022-08-17T22:38:21.097Z,101121.19
2022-08-17T22:40:51.321Z,101124.81
2022-08-17T22:43:26.518Z,101118.44
2022-08-17T22:45:59.307Z,101117.41
2022-08-17T22:48:29.527Z,101116.38
2022-08-17T22:51:16.137Z,101121.00
2022-08-17T22:54:16.035Z,101113.00
2022-08-17T22:57:23.750Z,101126.66
2022-08-17T22:59:55.242Z,101135.41
2022-08-17T23:02:30.832Z,101139.16
2022-08-17T23:05:10.306Z,101142.53
2022-08-17T23:10:24.488Z,101145.75
2022-08-17T23:12:52.552Z,101143.06
2022-08-17T23:15:24.184Z,101153.31
2022-08-17T23:17:51.504Z,101153.50
2022-08-17T23:20:18.812Z,101155.06
2022-08-17T23:25:35.361Z,101154.91
2022-08-17T23:28:07.706Z,101150.41
2022-08-17T23:33:31.198Z,101156.75
2022-08-17T23:36:01.316Z,101156.78
2022-08-17T23:38:28.676Z,101151.63
2022-08-17T23:43:44.429Z,101152.31
2022-08-17T23:46:11.894Z,101139.75
2022-08-17T23:48:43.063Z,101139.75
2022-08-17T23:57:33.539Z,101141.41
